Little Rock Air Force Base
KLRF : now visible

Airfield :











YOU CAN JOIN US ON...

 
LOGIN :

Register | Disclaimer

   EN    FR    IT 

 









Legend :    VFR   Marginal VFR   IFR   Intensive IFR   Very Intensive IFR
Visi :
Ceiling :
>= 8 km
>= 3000ft
5 to 8 km
1000 to 3000 ft
1500m to 5 km
500 to 1000 ft
800 to 1500m
200 to 500 ft
< 800m
< 200 ft
Symbols :   Thunderstorms  Fog  Heavy snow  Heavy precipitations  Wind > 20 kt






- Airport Elevation : 311 ft


KLRF - Little Rock Air Force Base

CURRENT METAR :
  • 211556Z AUTO 14005KT 10SM CLR 25/18 A3014 RMK AO2 SLP207 T02460178

EXPIRED METARs :
  • 211456Z AUTO 00000KT 10SM CLR 22/18 A3014 RMK AO2 SLP207 T02150183 52015
  • 211356Z AUTO 00000KT 10SM CLR 18/18 A3013 RMK AO2 SLP204 T01820175

TAF TAF KLRF
Valid from the 21 at 15:00 until the 22 at 21:00 UTC


211500Z 2115/2221 15006KT 9999 SKC QNH3005INS
BECMG 2214/2215 17010G15KT 9999 FEW030 QNH2998INS
BECMG 2220/2221 17006KT 9999 SKC QNH2997INS TX26/2119Z TN18/2212Z
KZME FIR / North America



MET'MAP, your aeronautical weather chart ! - Copyright ORBIFLY December 2007 - Disclaimer

ORBIFLY MET'MAP TEAM :

Programming & Development : Alexandra Zaïnal
Concept & original design : Baudouin d'Aumeries
Assistance for programming : Marc-Olivier Méhu
Technical & hardware support : Manuel Goepfert

Contact : metmap@orbifly.com




SOURCES & CREDITS :

   NOAA       Earth
Advisory